Time;durP1;ratioP1;P1;durP2;ratioP2;P2;SDS_P1;SDS_P2;PMS_P1;PMS_P2;Temp;Humidity;BMP_temperature;BMP_pressure;BME280_temperature;BME280_humidity;BME280_pressure;Samples;Min_cycle;Max_cycle;Signal;HPM_P1;HPM_P2
2022/05/17 03:56:39;;;;;;;13.25;7.57;;;;;;;19.78;63.42;100476.09;5606241;31;82813;-59
2022/05/17 03:59:42;;;;;;;10.20;7.50;;;;;;;19.78;63.42;100476.09;5584307;31;33426;-59
2022/05/17 04:02:44;;;;;;;12.37;7.40;;;;;;;19.33;66.03;100474.19;5584116;31;33539;-59
2022/05/17 04:05:49;;;;;;;12.10;7.80;;;;;;;19.33;66.31;100474.97;5584036;31;33356;-59
2022/05/17 04:08:52;;;;;;;12.13;7.50;;;;;;;19.41;65.02;100482.25;5583951;31;33199;-59
2022/05/17 04:11:54;;;;;;;10.55;7.05;;;;;;;19.54;64.25;100483.06;5589134;31;33516;-59
2022/05/17 04:14:56;;;;;;;11.48;7.12;;;;;;;19.59;63.26;100474.66;5603701;31;34218;-59
2022/05/17 04:17:59;;;;;;;8.95;6.95;;;;;;;19.56;66.13;100469.12;5603432;31;34348;-58
2022/05/17 04:21:03;;;;;;;13.90;7.12;;;;;;;19.58;65.53;100478.53;5603419;31;33933;-59
2022/05/17 04:24:05;;;;;;;10.50;7.20;;;;;;;19.69;63.79;100468.03;5602956;31;33652;-58
2022/05/17 04:27:09;;;;;;;8.15;6.87;;;;;;;19.79;64.09;100483.91;5596887;31;33786;-58
2022/05/17 04:30:12;;;;;;;9.82;7.40;;;;;;;19.87;63.43;100476.78;5595715;31;33737;-58
2022/05/17 04:33:16;;;;;;;15.82;7.65;;;;;;;19.87;64.40;100480.28;5602072;31;33727;-59
2022/05/17 04:36:21;;;;;;;12.73;7.68;;;;;;;19.97;63.75;100470.87;5589571;31;33875;-59
2022/05/17 04:39:24;;;;;;;16.35;8.57;;;;;;;20.05;63.92;100474.59;5596994;31;33584;-59
2022/05/17 04:42:27;;;;;;;16.87;8.52;;;;;;;20.17;64.53;100475.38;5583593;31;34364;-59
2022/05/17 04:45:30;;;;;;;13.52;8.02;;;;;;;20.09;63.63;100467.34;5584621;31;33357;-59
2022/05/17 04:48:32;;;;;;;18.12;8.25;;;;;;;20.01;67.41;100466.31;5584405;31;34323;-59
2022/05/17 04:51:35;;;;;;;15.32;8.52;;;;;;;19.98;67.43;100467.00;5583600;32;34230;-59
2022/05/17 04:54:37;;;;;;;15.32;7.80;;;;;;;20.03;67.58;100452.38;5593414;31;34252;-59
2022/05/17 04:57:39;;;;;;;10.77;7.40;;;;;;;20.06;67.30;100457.13;5587576;31;33596;-59
2022/05/17 05:00:43;;;;;;;20.90;7.95;;;;;;;20.14;67.82;100453.50;5584772;31;33616;-59
2022/05/17 05:03:45;;;;;;;18.83;8.23;;;;;;;20.22;62.82;100463.47;5594776;31;33763;-59
2022/05/17 05:06:47;;;;;;;12.32;7.93;;;;;;;20.34;63.21;100463.44;5595204;31;34330;-59
2022/05/17 05:09:49;;;;;;;11.63;7.37;;;;;;;20.40;63.06;100464.00;5589582;31;34329;-59
2022/05/17 05:12:52;;;;;;;16.77;8.25;;;;;;;20.41;65.23;100468.31;5609624;31;34267;-59
2022/05/17 05:15:55;;;;;;;15.02;7.68;;;;;;;20.49;64.33;100469.28;5584514;31;33578;-59
2022/05/17 05:18:58;;;;;;;11.73;8.35;;;;;;;20.55;66.76;100470.69;5570257;32;34504;-59
2022/05/17 05:22:00;;;;;;;17.87;8.07;;;;;;;20.58;64.71;100470.78;5571037;31;33677;-59
2022/05/17 05:25:03;;;;;;;21.42;9.85;;;;;;;20.69;62.99;100473.00;5570179;32;33304;-59
2022/05/17 05:28:08;;;;;;;17.50;8.27;;;;;;;20.75;64.22;100479.81;5569543;32;34393;-59
2022/05/17 05:31:12;;;;;;;13.85;9.18;;;;;;;20.78;63.33;100479.12;5583474;31;33712;-59
2022/05/17 05:34:15;;;;;;;20.05;8.80;;;;;;;20.88;62.09;100471.22;5589399;31;33736;-59
2022/05/17 05:37:17;;;;;;;12.35;8.13;;;;;;;20.96;62.33;100477.69;5588957;31;34308;-59
2022/05/17 05:40:21;;;;;;;17.58;7.78;;;;;;;21.00;62.24;100470.41;5587997;31;34254;-59
2022/05/17 05:43:23;;;;;;;9.75;6.95;;;;;;;21.07;59.96;100476.03;5589105;31;34310;-59
2022/05/17 05:46:27;;;;;;;17.95;7.25;;;;;;;21.18;60.58;100473.59;5589471;31;34357;-59
2022/05/17 05:49:30;;;;;;;12.85;6.97;;;;;;;21.24;59.54;100471.41;5586229;31;33587;-59
2022/05/17 05:52:32;;;;;;;12.15;6.43;;;;;;;21.28;61.05;100455.91;5570799;31;33573;-59
2022/05/17 05:55:35;;;;;;;15.30;7.12;;;;;;;21.29;59.00;100460.22;5569804;32;33729;-59
2022/05/17 05:58:39;;;;;;;8.23;5.70;;;;;;;21.42;57.54;100463.69;5569677;32;34341;-59
2022/05/17 06:01:42;;;;;;;10.07;6.57;;;;;;;21.50;59.18;100463.53;5580147;31;33619;-59
2022/05/17 06:04:45;;;;;;;9.75;6.53;;;;;;;21.46;58.42;100461.88;5587806;31;34371;-59
2022/05/17 06:07:48;;;;;;;8.88;6.00;;;;;;;21.46;55.57;100459.94;5589109;31;33607;-60
2022/05/17 06:10:51;;;;;;;11.98;6.72;;;;;;;21.51;57.37;100456.94;5587757;31;33693;-57
2022/05/17 06:13:53;;;;;;;13.93;6.65;;;;;;;21.60;55.33;100461.44;5572474;31;33573;-59
2022/05/17 06:16:56;;;;;;;15.30;6.10;;;;;;;21.58;55.89;100468.00;5577715;31;34383;-59
2022/05/17 06:19:58;;;;;;;9.63;6.03;;;;;;;21.69;56.13;100468.28;5575951;31;33218;-59
2022/05/17 06:23:01;;;;;;;11.57;6.03;;;;;;;21.69;55.84;100475.66;5583187;31;33680;-59
2022/05/17 06:26:03;;;;;;;11.50;6.68;;;;;;;21.91;57.09;100485.94;5588820;31;33587;-59
2022/05/17 06:29:07;;;;;;;8.43;5.47;;;;;;;22.03;55.03;100483.12;5588876;31;33773;-59
2022/05/17 06:32:12;;;;;;;10.10;5.45;;;;;;;22.08;55.47;100484.78;5582889;31;34406;-59
2022/05/17 06:35:14;;;;;;;10.80;5.62;;;;;;;22.15;56.50;100482.25;5569102;32;33546;-59
2022/05/17 06:38:17;;;;;;;7.20;5.47;;;;;;;22.27;56.89;100478.59;5569018;31;34025;-59
2022/05/17 06:41:19;;;;;;;11.00;5.80;;;;;;;22.29;54.62;100473.59;5569463;32;33698;-59
2022/05/17 06:44:21;;;;;;;7.62;5.03;;;;;;;22.45;54.24;100485.25;5569777;31;34345;-59
2022/05/17 06:47:25;;;;;;;7.50;5.10;;;;;;;22.35;54.18;100488.56;5569181;32;33622;-59
2022/05/17 06:50:28;;;;;;;9.05;5.12;;;;;;;22.34;54.19;100484.22;5578258;31;33746;-59
2022/05/17 06:53:31;;;;;;;13.82;5.47;;;;;;;22.38;55.11;100495.22;5588554;31;34392;-59
2022/05/17 06:56:34;;;;;;;8.10;5.22;;;;;;;22.55;53.77;100494.00;5588684;31;33878;-59
2022/05/17 06:59:39;;;;;;;12.52;5.95;;;;;;;22.51;54.19;100488.47;5586256;31;33779;-59
2022/05/17 07:02:41;;;;;;;7.57;5.00;;;;;;;22.49;54.98;100490.78;5587303;31;34150;-59
2022/05/17 07:05:44;;;;;;;12.20;4.93;;;;;;;22.58;55.24;100491.34;5570317;31;34408;-59
2022/05/17 07:08:46;;;;;;;10.63;5.43;;;;;;;22.64;54.77;100500.06;5569338;32;33654;-60
2022/05/17 07:15:11;;;;;;;9.23;4.57;;;;;;;22.78;53.87;100494.91;5570436;31;34238;-59
2022/05/17 07:18:18;;;;;;;8.82;5.05;;;;;;;22.70;56.43;100493.94;5586418;31;33336;-59
2022/05/17 07:21:21;;;;;;;8.25;5.40;;;;;;;22.59;56.06;100492.94;5586251;31;34277;-59
2022/05/17 07:24:23;;;;;;;7.25;5.00;;;;;;;22.47;54.95;100504.78;5584725;31;34285;-59
2022/05/17 07:27:25;;;;;;;7.40;4.87;;;;;;;22.49;56.67;100491.56;5585015;31;33600;-59
2022/05/17 07:30:28;;;;;;;7.60;5.07;;;;;;;22.52;56.36;100490.88;5584924;31;33694;-58
2022/05/17 07:33:30;;;;;;;8.95;5.30;;;;;;;22.38;55.87;100497.94;5587211;31;34188;-59
2022/05/17 07:36:33;;;;;;;8.93;5.00;;;;;;;22.39;56.49;100494.87;5585900;31;33847;-59
2022/05/17 07:39:35;;;;;;;6.87;4.82;;;;;;;22.42;56.97;100507.03;5587337;31;34209;-59
2022/05/17 07:42:40;;;;;;;7.07;5.50;;;;;;;22.30;55.94;100518.84;5578320;31;33724;-59
2022/05/17 07:45:44;;;;;;;7.20;5.28;;;;;;;22.32;57.95;100511.09;5588135;31;33556;-59
2022/05/17 07:48:47;;;;;;;8.15;5.50;;;;;;;22.17;56.78;100512.72;5585598;31;33227;-59
2022/05/17 07:51:49;;;;;;;8.95;5.80;;;;;;;22.23;57.04;100514.03;5588031;31;33738;-59
2022/05/17 07:54:53;;;;;;;8.82;5.87;;;;;;;22.32;57.66;100505.66;5587963;31;33693;-60
2022/05/17 07:57:55;;;;;;;10.40;5.80;;;;;;;22.25;58.20;100517.19;5583629;31;34348;-58
2022/05/17 08:00:57;;;;;;;7.82;6.03;;;;;;;22.15;58.42;100517.75;5578777;31;33203;-59
2022/05/17 08:04:02;;;;;;;10.15;6.15;;;;;;;22.07;59.55;100513.22;5572877;31;33663;-59
2022/05/17 08:07:05;;;;;;;9.60;6.50;;;;;;;22.15;59.86;100516.91;5569502;31;33203;-59
2022/05/17 08:10:09;;;;;;;9.40;6.22;;;;;;;22.00;60.19;100530.22;5569773;31;33607;-58
2022/05/17 08:13:13;;;;;;;10.15;5.85;;;;;;;21.85;62.05;100533.75;5585861;31;33703;-59
2022/05/17 08:16:16;;;;;;;27.20;7.68;;;;;;;21.76;64.63;100535.87;5586681;31;34302;-58
2022/05/17 08:19:19;;;;;;;9.25;6.93;;;;;;;21.65;67.09;100529.34;5586407;31;33696;-59
2022/05/17 08:22:21;;;;;;;12.55;7.80;;;;;;;21.42;70.56;100540.84;5576893;31;33957;-59
2022/05/17 08:28:46;;;;;;;12.90;7.50;;;;;;;21.14;70.14;100548.25;5580124;31;34429;-59
2022/05/17 08:35:09;;;;;;;15.20;8.38;;;;;;;20.98;74.15;100557.16;5585338;31;33617;-59
2022/05/17 08:38:16;;;;;;;12.63;8.23;;;;;;;21.04;74.59;100549.53;5586873;31;33333;-59
2022/05/17 08:41:36;;;;;;;10.50;7.70;;;;;;;20.94;75.31;100553.53;5586493;31;33632;-59
2022/05/17 08:44:50;;;;;;;11.63;7.87;;;;;;;20.91;75.26;100564.34;5570487;31;32156;-59
2022/05/17 08:47:53;;;;;;;12.75;8.18;;;;;;;20.91;73.45;100553.44;5588296;31;33592;-59
2022/05/17 08:51:05;;;;;;;9.02;7.82;;;;;;;20.87;75.31;100556.84;5578341;31;34414;-59
2022/05/17 08:54:13;;;;;;;9.88;8.10;;;;;;;20.91;73.25;100550.72;5588502;31;33672;-59
2022/05/17 08:57:37;;;;;;;12.35;8.38;;;;;;;20.92;70.97;100565.91;5578199;31;33582;-58
2022/05/17 09:00:51;;;;;;;11.77;8.55;;;;;;;20.77;72.59;100565.50;5587651;31;34228;-59
2022/05/17 09:04:18;;;;;;;12.55;8.75;;;;;;;20.81;73.51;100571.06;5589272;31;33593;-59
2022/05/17 09:07:26;;;;;;;11.75;8.52;;;;;;;20.68;74.47;100575.72;5588706;31;34388;-59
2022/05/17 09:10:44;;;;;;;10.77;8.50;;;;;;;20.70;76.05;100569.97;5587060;31;34444;-59
2022/05/17 09:14:06;;;;;;;11.00;8.60;;;;;;;20.74;74.25;100568.91;5581658;31;33841;-59
2022/05/17 09:17:14;;;;;;;13.00;8.25;;;;;;;20.83;73.28;100558.69;5577275;31;34439;-59
2022/05/17 09:20:20;;;;;;;12.43;8.70;;;;;;;20.78;72.52;100558.13;5586519;31;33777;-59
2022/05/17 09:23:22;;;;;;;15.75;9.02;;;;;;;20.65;73.63;100576.41;5581092;31;34271;-58
2022/05/17 09:26:26;;;;;;;10.63;9.05;;;;;;;20.60;75.12;100579.41;5576739;31;33777;-58
2022/05/17 09:29:42;;;;;;;13.07;8.93;;;;;;;20.52;77.37;100583.81;5569716;31;33671;-59
2022/05/17 09:32:44;;;;;;;;;;;;;;;20.56;80.41;100581.19;5574845;31;33787;-58
2022/05/17 09:35:57;;;;;;;12.65;8.77;;;;;;;20.58;82.51;100589.81;5575646;31;34105;-58
2022/05/17 09:39:02;;;;;;;12.20;8.77;;;;;;;20.63;77.99;100573.25;5577435;31;33728;-59
2022/05/17 09:42:08;;;;;;;10.10;8.15;;;;;;;20.50;79.73;100571.66;5571297;31;34487;-58
2022/05/17 09:45:18;;;;;;;9.45;8.25;;;;;;;20.36;77.95;100572.00;5578332;31;33424;-59
2022/05/17 09:52:38;;;;;;;10.02;7.80;;;;;;;20.29;84.71;100574.50;5516111;31;33489;-58
2022/05/17 09:55:47;;;;;;;12.25;8.07;;;;;;;20.35;78.13;100568.47;5572844;31;33806;-58
2022/05/17 09:58:50;;;;;;;10.93;8.55;;;;;;;20.27;78.98;100574.06;5569422;31;34204;-59
2022/05/17 10:01:54;;;;;;;12.68;8.70;;;;;;;20.21;83.80;100575.41;5578303;31;34376;-59
2022/05/17 10:04:57;;;;;;;11.93;8.57;;;;;;;20.27;79.40;100565.87;5573855;31;33644;-59
2022/05/17 10:08:02;;;;;;;11.40;9.63;;;;;;;20.29;83.50;100560.88;5581684;31;33674;-59
2022/05/17 10:11:17;;;;;;;11.32;9.10;;;;;;;20.27;81.92;100563.16;5581250;31;34192;-58
2022/05/17 10:14:28;;;;;;;12.30;9.77;;;;;;;20.25;83.67;100563.50;5572117;31;33676;-58
2022/05/17 10:17:39;;;;;;;11.32;9.23;;;;;;;20.24;82.50;100564.62;5572653;31;32167;-58
2022/05/17 10:20:49;;;;;;;12.82;9.70;;;;;;;20.43;80.94;100555.91;5572030;31;34458;-59
2022/05/17 10:24:02;;;;;;;14.57;9.65;;;;;;;20.44;84.93;100557.47;5573860;31;33829;-60
2022/05/17 10:27:13;;;;;;;13.40;9.32;;;;;;;20.53;83.68;100558.19;5580124;31;33573;-58
2022/05/17 10:30:52;;;;;;;14.57;10.32;;;;;;;20.62;82.13;100553.38;5570218;31;34292;-59
2022/05/17 10:34:37;;;;;;;12.18;9.73;;;;;;;20.79;80.92;100551.53;5577183;31;33634;-59
2022/05/17 10:38:22;;;;;;;12.93;10.20;;;;;;;20.88;80.72;100554.91;5572299;31;33728;-58
2022/05/17 10:41:25;;;;;;;14.35;9.98;;;;;;;20.89;80.80;100545.59;5545089;31;33388;-59
2022/05/17 10:44:41;;;;;;;15.00;10.38;;;;;;;21.01;80.91;100545.56;5570708;31;34039;-59
2022/05/17 10:48:28;;;;;;;12.85;10.63;;;;;;;21.08;83.81;100543.03;5581445;31;34393;-59
2022/05/17 10:51:48;;;;;;;13.50;9.35;;;;;;;21.24;80.53;100550.47;5559272;31;33398;-59
2022/05/17 10:54:54;;;;;;;12.73;9.77;;;;;;;21.33;80.20;100551.12;5580412;31;34526;-60
2022/05/17 10:58:12;;;;;;;11.93;9.68;;;;;;;21.27;77.84;100553.28;5571423;31;33728;-60
2022/05/17 11:01:32;;;;;;;14.52;10.70;;;;;;;21.24;73.88;100550.47;5568409;31;33649;-59
2022/05/17 11:05:09;;;;;;;11.60;10.05;;;;;;;21.11;77.81;100545.06;5566567;31;33674;-59
2022/05/17 11:08:37;;;;;;;12.27;9.10;;;;;;;21.18;77.62;100551.84;5574207;31;33523;-59
2022/05/17 11:11:53;;;;;;;11.07;9.15;;;;;;;21.10;72.44;100554.38;5585206;31;33593;-59
2022/05/17 11:15:07;;;;;;;10.57;9.15;;;;;;;21.14;73.47;100551.75;5582503;31;33663;-59
2022/05/17 11:18:47;;;;;;;13.68;8.50;;;;;;;21.06;74.31;100545.31;5584161;31;34414;-59
2022/05/17 11:22:06;;;;;;;12.57;10.07;;;;;;;21.13;76.20;100542.00;5571844;31;33539;-59
2022/05/17 11:25:18;;;;;;;16.12;10.50;;;;;;;21.20;74.12;100544.91;5577406;31;34208;-58
2022/05/17 11:28:38;;;;;;;14.68;9.82;;;;;;;21.18;73.22;100547.19;5573841;31;34368;-59
2022/05/17 11:31:53;;;;;;;13.20;9.90;;;;;;;21.32;75.08;100539.41;5577768;31;32010;-58
2022/05/17 11:34:59;;;;;;;13.32;10.07;;;;;;;21.33;70.37;100537.47;5584489;31;34209;-59
2022/05/17 11:38:04;;;;;;;;;;;;;;;21.41;73.47;100528.34;5575644;31;33768;-59
2022/05/17 11:41:15;;;;;;;12.63;9.77;;;;;;;21.58;71.77;100522.56;5584253;31;34728;-60
2022/05/17 11:44:26;;;;;;;12.73;9.52;;;;;;;21.63;73.60;100513.34;5581483;31;33338;-59
2022/05/17 11:47:37;;;;;;;11.07;8.50;;;;;;;21.69;72.64;100509.22;5573363;31;33667;-59
2022/05/17 11:50:54;;;;;;;16.60;9.85;;;;;;;21.75;69.52;100498.81;5576635;31;33343;-59
2022/05/17 11:53:57;;;;;;;11.95;9.45;;;;;;;21.72;69.14;100500.34;5584379;31;34328;-60
2022/05/17 11:57:00;;;;;;;10.38;8.75;;;;;;;21.64;66.78;100497.75;5569242;31;33687;-59
2022/05/17 12:00:29;;;;;;;10.43;8.40;;;;;;;21.69;70.25;100500.22;5568629;31;33754;-59
2022/05/17 12:03:53;;;;;;;12.13;8.40;;;;;;;21.78;71.31;100498.09;5570855;31;33758;-60
2022/05/17 12:06:55;;;;;;;13.43;8.55;;;;;;;21.71;67.78;100496.00;5575317;31;33726;-59
2022/05/17 12:10:19;;;;;;;11.98;8.30;;;;;;;21.70;71.13;100490.91;5581103;31;33806;-58
2022/05/17 12:13:22;;;;;;;15.00;8.60;;;;;;;21.70;67.02;100493.63;5584383;31;34446;-59
2022/05/17 12:16:29;;;;;;;8.80;7.80;;;;;;;21.66;71.65;100493.56;5585656;31;34418;-59
2022/05/17 12:19:45;;;;;;;13.32;8.15;;;;;;;21.75;68.64;100491.41;5583382;31;34265;-59
2022/05/17 12:23:31;;;;;;;12.35;8.02;;;;;;;21.75;67.33;100482.44;5586882;31;33611;-60
2022/05/17 12:26:55;;;;;;;10.18;8.10;;;;;;;21.79;66.06;100481.41;5583650;31;33164;-57
2022/05/17 12:33:49;;;;;;;11.18;7.68;;;;;;;21.86;66.78;100478.03;5583233;31;33646;-58
2022/05/17 12:37:06;;;;;;;11.45;8.55;;;;;;;21.93;66.22;100480.94;5589508;31;34358;-59
2022/05/17 12:43:33;;;;;;;11.90;8.88;;;;;;;22.06;65.47;100476.16;5574107;31;34527;-59
2022/05/17 12:46:37;;;;;;;11.02;8.70;;;;;;;21.93;66.24;100472.75;5581833;31;33715;-59
2022/05/17 12:49:42;;;;;;;14.75;8.80;;;;;;;21.94;64.69;100473.53;5570102;31;35302;-58
2022/05/17 12:52:52;;;;;;;9.70;8.07;;;;;;;21.89;67.92;100452.78;5569507;31;34492;-59
2022/05/17 12:56:01;;;;;;;12.52;8.55;;;;;;;21.95;70.11;100456.81;5569508;31;34616;-59
2022/05/17 12:59:06;;;;;;;12.85;9.05;;;;;;;21.95;65.76;100448.62;5580326;31;34147;-59
2022/05/17 13:02:09;;;;;;;13.00;8.48;;;;;;;21.84;66.64;100453.03;5572276;31;34570;-59
2022/05/17 13:05:40;;;;;;;10.63;8.40;;;;;;;21.84;65.61;100454.97;5569563;31;33664;-59
2022/05/17 13:08:42;;;;;;;11.10;7.93;;;;;;;21.90;66.83;100450.84;5570616;31;34327;-58
2022/05/17 13:11:45;;;;;;;11.70;8.30;;;;;;;21.81;66.51;100448.28;5587148;31;33362;-59
2022/05/17 13:14:49;;;;;;;10.32;8.45;;;;;;;21.87;64.77;100440.63;5572836;31;33733;-60
2022/05/17 13:17:56;;;;;;;14.27;9.10;;;;;;;21.88;64.33;100440.25;5568998;31;33785;-59
2022/05/17 13:20:59;;;;;;;14.40;8.27;;;;;;;21.83;63.48;100437.81;5573987;31;34440;-60
2022/05/17 13:24:08;;;;;;;10.45;8.93;;;;;;;21.74;67.07;100440.72;5570895;31;33503;-59
2022/05/17 13:27:25;;;;;;;8.57;7.68;;;;;;;21.70;64.53;100441.78;5582236;31;33411;-59
2022/05/17 13:30:40;;;;;;;10.95;7.80;;;;;;;21.63;65.42;100450.59;5582984;31;34294;-59
2022/05/17 13:34:01;;;;;;;13.25;9.25;;;;;;;21.66;66.63;100446.38;5582112;31;33755;-59
2022/05/17 13:37:14;;;;;;;16.25;9.23;;;;;;;21.58;64.61;100454.37;5580915;31;34156;-59
2022/05/17 13:40:38;;;;;;;10.32;8.85;;;;;;;21.63;65.50;100458.78;5570145;32;34404;-59
2022/05/17 13:43:40;;;;;;;11.27;8.15;;;;;;;21.52;66.35;100455.81;5570192;31;34274;-60
2022/05/17 13:46:48;;;;;;;10.90;7.55;;;;;;;21.38;69.13;100452.69;5582504;31;33342;-59
2022/05/17 13:49:51;;;;;;;9.32;7.97;;;;;;;21.54;70.43;100448.03;5579800;31;34454;-59
2022/05/17 13:53:08;;;;;;;10.43;9.00;;;;;;;21.58;70.56;100438.00;5588023;31;34287;-59
2022/05/17 13:56:12;;;;;;;14.32;8.52;;;;;;;21.52;69.42;100442.16;5574699;31;34036;-60
2022/05/17 13:59:16;;;;;;;15.18;9.32;;;;;;;21.58;73.24;100429.81;5571266;31;34282;-59
2022/05/17 14:02:51;;;;;;;10.70;8.70;;;;;;;21.43;69.21;100433.37;5583264;31;34489;-59
2022/05/17 14:05:58;;;;;;;13.32;8.57;;;;;;;21.38;69.69;100430.88;5570818;31;34373;-59
2022/05/17 14:12:21;;;;;;;7.82;6.90;;;;;;;21.31;65.83;100431.47;5576045;31;34482;-59
2022/05/17 14:15:24;;;;;;;7.95;7.10;;;;;;;21.30;64.39;100434.56;5578989;31;33831;-58
2022/05/17 14:18:36;;;;;;;9.75;7.85;;;;;;;21.20;68.10;100432.34;5574425;31;33688;-58
2022/05/17 14:21:38;;;;;;;9.50;8.25;;;;;;;21.19;66.03;100426.13;5581658;31;33264;-59
2022/05/17 14:24:40;;;;;;;11.05;8.52;;;;;;;21.20;66.61;100418.72;5584739;31;34417;-59
2022/05/17 14:27:42;;;;;;;13.27;8.93;;;;;;;21.23;67.75;100424.25;5578355;31;34393;-59
2022/05/17 14:30:45;;;;;;;12.75;9.38;;;;;;;21.31;66.51;100419.78;5569114;32;33707;-59
2022/05/17 14:33:50;;;;;;;10.77;9.48;;;;;;;21.08;66.84;100419.59;5568850;31;33747;-57
2022/05/17 14:36:53;;;;;;;12.63;8.63;;;;;;;21.09;67.22;100416.53;5571511;31;33680;-58
2022/05/17 14:39:57;;;;;;;12.00;9.25;;;;;;;21.08;68.53;100423.09;5571900;31;34144;-57
2022/05/17 14:43:00;;;;;;;15.52;9.77;;;;;;;21.06;68.98;100425.41;5577207;31;34480;-58
2022/05/17 14:46:02;;;;;;;10.85;8.80;;;;;;;21.10;68.16;100429.00;5566788;31;33660;-58
2022/05/17 14:49:15;;;;;;;10.25;9.25;;;;;;;21.08;71.62;100420.37;5573900;31;33745;-58
2022/05/17 14:52:17;;;;;;;11.95;9.38;;;;;;;21.08;69.07;100420.37;5568555;31;34255;-59
2022/05/17 14:55:22;;;;;;;12.37;9.00;;;;;;;21.19;68.41;100419.84;5569624;31;34381;-59
2022/05/17 14:58:25;;;;;;;13.40;9.60;;;;;;;21.17;69.36;100420.22;5577611;31;33814;-59
2022/05/17 15:01:28;;;;;;;11.88;8.52;;;;;;;21.10;67.94;100412.66;5569842;31;33666;-59
2022/05/17 15:04:32;;;;;;;10.13;8.73;;;;;;;21.11;67.91;100405.25;5568855;31;33692;-56
2022/05/17 15:07:37;;;;;;;10.53;8.50;;;;;;;21.07;68.75;100413.34;5569975;31;33700;-56
2022/05/17 15:10:40;;;;;;;13.23;8.10;;;;;;;21.11;67.76;100421.59;5568811;31;33563;-57
2022/05/17 15:13:43;;;;;;;10.35;7.70;;;;;;;21.07;66.25;100416.06;5579143;31;34563;-56
2022/05/17 15:16:46;;;;;;;11.38;8.30;;;;;;;21.02;67.72;100423.69;5571176;31;33821;-57
2022/05/17 15:19:51;;;;;;;10.50;8.95;;;;;;;20.99;66.54;100432.56;5568114;31;34472;-57
2022/05/17 15:22:56;;;;;;;12.60;8.32;;;;;;;21.03;66.45;100423.37;5569058;31;33792;-56
2022/05/17 15:25:59;;;;;;;9.83;8.30;;;;;;;21.10;68.72;100425.47;5574266;31;33673;-56
2022/05/17 15:29:04;;;;;;;10.00;8.77;;;;;;;21.16;66.94;100406.91;5574518;31;33715;-56
2022/05/17 15:32:09;;;;;;;12.63;9.05;;;;;;;21.25;66.16;100413.78;5569131;31;34439;-55
2022/05/17 15:35:16;;;;;;;10.40;8.03;;;;;;;21.15;66.46;100410.78;5568782;31;33042;-56
2022/05/17 15:38:22;;;;;;;9.95;8.38;;;;;;;21.06;66.86;100408.25;5568459;32;34435;-56
2022/05/17 15:41:24;;;;;;;10.52;9.13;;;;;;;21.14;66.16;100411.94;5566424;31;34329;-56
2022/05/17 15:44:27;;;;;;;9.77;8.20;;;;;;;21.07;66.33;100413.34;5567086;31;34304;-56
